Time;durP1;ratioP1;P1;durP2;ratioP2;P2;SDS_P1;SDS_P2;PMS_P1;PMS_P2;Temp;Humidity;BMP_temperature;BMP_pressure;BME280_temperature;BME280_humidity;BME280_pressure;Samples;Min_cycle;Max_cycle;Signal;HPM_P1;HPM_P2
2022/02/22 00:00:11;;;;;;;;;;;;;;;19.80;35.91;100915.28;4420417;32;20741;-71
2022/02/22 00:02:40;;;;;;;;;;;;;;;20.04;35.42;100915.09;4417561;32;19961;-71
2022/02/22 00:05:06;;;;;;;;;;;;;;;19.87;35.84;100908.34;4417880;32;20350;-71
2022/02/22 00:07:33;;;;;;;;;;;;;;;19.56;36.01;100918.31;4417992;32;21309;-71
2022/02/22 00:09:58;;;;;;;;;;;;;;;19.55;36.15;100913.09;4416086;32;19961;-71
2022/02/22 00:12:24;;;;;;;;;;;;;;;19.48;36.38;100913.50;4416389;32;20004;-71
2022/02/22 00:14:50;;;;;;;;;;;;;;;19.21;36.83;100905.28;4414380;32;20011;-71
2022/02/22 00:17:16;;;;;;;;;;;;;;;19.02;37.00;100904.69;4416721;32;20956;-71
2022/02/22 00:19:42;;;;;;;;;;;;;;;19.18;36.90;100911.97;4414817;32;20005;-71
2022/02/22 00:22:08;;;;;;;;;;;;;;;19.30;36.50;100893.78;4414692;32;20017;-71
2022/02/22 00:24:35;;;;;;;;;;;;;;;19.25;36.14;100897.28;4417601;32;20047;-71
2022/02/22 00:27:03;;;;;;;;;;;;;;;19.24;36.24;100882.22;4404947;32;19985;-71
2022/02/22 00:29:49;;;;;;;;;;;;;;;19.30;36.07;100873.81;4416170;32;20003;-71
2022/02/22 00:32:18;;;;;;;;;;;;;;;18.93;36.55;100884.81;4415943;32;20031;-71
2022/02/22 00:34:43;;;;;;;;;;;;;;;18.92;36.75;100885.31;4416102;32;20016;-71
2022/02/22 00:37:11;;;;;;;;;;;;;;;18.93;36.79;100884.06;4414902;32;19965;-71
2022/02/22 00:39:36;;;;;;;;;;;;;;;18.83;36.84;100876.88;4414949;32;20362;-71
2022/02/22 00:42:02;;;;;;;;;;;;;;;18.57;37.41;100873.03;4418409;32;19997;-71
2022/02/22 00:44:29;;;;;;;;;;;;;;;18.40;37.65;100874.78;4416960;32;20041;-71
2022/02/22 00:46:54;;;;;;;;;;;;;;;18.21;38.12;100873.34;4418002;32;19973;-71
2022/02/22 00:49:20;;;;;;;;;;;;;;;18.39;37.91;100878.91;4418380;32;19996;-71
2022/02/22 00:51:46;;;;;;;;;;;;;;;18.28;37.90;100873.00;4415953;32;20453;-71
2022/02/22 00:54:12;;;;;;;;;;;;;;;18.16;37.71;100869.09;4416226;32;20334;-71
2022/02/22 00:56:37;;;;;;;;;;;;;;;18.24;37.75;100869.53;4416678;32;20000;-71
2022/02/22 00:59:03;;;;;;;;;;;;;;;18.19;37.87;100864.53;4412581;32;20007;-71
2022/02/22 01:01:38;;;;;;;;;;;;;;;18.29;37.64;100848.91;4416613;32;20034;-71
2022/02/22 01:04:09;;;;;;;;;;;;;;;18.20;37.76;100846.16;4417028;32;19961;-71
2022/02/22 01:06:36;;;;;;;;;;;;;;;17.98;37.99;100840.78;4417365;32;19953;-71
2022/02/22 01:09:04;;;;;;;;;;;;;;;18.14;37.21;100836.69;4412721;32;20350;-71
2022/02/22 01:11:30;;;;;;;;;;;;;;;18.29;37.10;100826.91;4416705;32;20704;-71
2022/02/22 01:13:56;;;;;;;;;;;;;;;18.14;36.68;100811.88;4419376;32;20045;-71
2022/02/22 01:16:43;;;;;;;;;;;;;;;17.70;37.66;100817.44;4414178;32;19993;-71
2022/02/22 01:19:10;;;;;;;;;;;;;;;18.17;36.85;100812.94;4416764;32;20268;-71
2022/02/22 01:21:36;;;;;;;;;;;;;;;18.08;36.72;100805.28;4416017;32;20034;-71
2022/02/22 01:24:08;;;;;;;;;;;;;;;18.25;36.37;100791.34;4414898;32;20035;-71
2022/02/22 01:26:34;;;;;;;;;;;;;;;18.29;36.03;100792.72;4417037;32;20071;-71
2022/02/22 01:29:01;;;;;;;;;;;;;;;18.50;35.93;100787.94;4417056;32;19949;-71
2022/02/22 01:31:27;;;;;;;;;;;;;;;18.36;35.84;100774.44;4415383;32;20000;-71
2022/02/22 01:33:57;;;;;;;;;;;;;;;18.03;36.53;100765.28;4413064;32;19984;-71
2022/02/22 01:36:27;;;;;;;;;;;;;;;17.77;36.79;100760.13;4415372;32;21070;-72
2022/02/22 01:38:53;;;;;;;;;;;;;;;17.36;37.67;100760.28;4416308;32;20466;-71
2022/02/22 01:41:20;;;;;;;;;;;;;;;17.70;37.04;100751.19;4416576;32;19984;-71
2022/02/22 01:43:45;;;;;;;;;;;;;;;17.85;36.75;100761.34;4417083;32;20314;-71
2022/02/22 01:46:16;;;;;;;;;;;;;;;17.75;36.80;100767.59;4415409;32;19972;-71
2022/02/22 01:48:41;;;;;;;;;;;;;;;17.77;37.02;100756.53;4414015;32;19996;-71
2022/02/22 01:51:07;;;;;;;;;;;;;;;18.76;35.34;100757.53;4416225;32;20015;-71
2022/02/22 01:53:33;;;;;;;;;;;;;;;18.56;35.35;100743.22;4415286;32;20017;-71
2022/02/22 01:55:59;;;;;;;;;;;;;;;18.67;35.29;100737.69;4415488;32;20009;-71
2022/02/22 01:58:27;;;;;;;;;;;;;;;18.24;35.91;100725.03;4417637;32;20352;-71
2022/02/22 02:00:52;;;;;;;;;;;;;;;18.75;35.14;100724.59;4415377;32;19953;-71
2022/02/22 02:03:39;;;;;;;;;;;;;;;18.50;35.71;100717.47;4415528;32;20345;-72
2022/02/22 02:06:04;;;;;;;;;;;;;;;18.31;36.01;100701.06;4413390;32;19965;-71
2022/02/22 02:08:50;;;;;;;;;;;;;;;18.30;35.89;100686.03;4413183;32;20391;-71
2022/02/22 02:11:47;;;;;;;;;;;;;;;17.95;37.06;100681.53;4414658;32;20036;-71
2022/02/22 02:14:33;;;;;;;;;;;;;;;17.45;38.02;100684.22;4414446;32;20000;-71
2022/02/22 02:17:18;;;;;;;;;;;;;;;17.58;37.71;100687.56;4416334;32;19958;-71
2022/02/22 02:20:06;;;;;;;;;;;;;;;17.53;38.31;100678.94;4413230;32;19961;-72
2022/02/22 02:22:57;;;;;;;;;;;;;;;18.16;37.24;100674.66;4415059;32;20364;-71
2022/02/22 02:25:25;;;;;;;;;;;;;;;18.43;36.52;100674.34;4417157;32;19956;-71
2022/02/22 02:27:51;;;;;;;;;;;;;;;18.72;36.44;100668.56;4413454;32;19993;-71
2022/02/22 02:30:24;;;;;;;;;;;;;;;18.99;36.00;100660.37;4416760;32;20021;-71
2022/02/22 02:33:11;;;;;;;;;;;;;;;18.96;36.29;100661.38;4413538;32;19965;-71
2022/02/22 02:35:36;;;;;;;;;;;;;;;19.29;36.09;100658.22;4415552;32;20450;-71
2022/02/22 02:38:22;;;;;;;;;;;;;;;19.39;36.25;100643.28;4413992;32;20306;-71
2022/02/22 02:41:10;;;;;;;;;;;;;;;19.34;36.12;100651.78;4416355;32;19980;-71
2022/02/22 02:44:01;;;;;;;;;;;;;;;19.06;37.04;100644.94;4416734;32;19953;-71
2022/02/22 02:46:31;;;;;;;;;;;;;;;18.89;37.61;100641.84;4418867;32;20405;-71
2022/02/22 02:48:57;;;;;;;;;;;;;;;18.91;37.99;100633.59;4417129;32;19993;-71
2022/02/22 02:51:23;;;;;;;;;;;;;;;18.80;38.25;100633.44;4414555;32;20042;-71
2022/02/22 02:53:50;;;;;;;;;;;;;;;18.44;39.03;100633.94;4419054;32;20365;-71
2022/02/22 02:56:16;;;;;;;;;;;;;;;18.64;38.98;100630.34;4413130;32;19964;-71
2022/02/22 02:58:47;;;;;;;;;;;;;;;18.50;39.52;100631.19;4413911;32;20493;-71
2022/02/22 03:01:12;;;;;;;;;;;;;;;18.24;40.24;100633.87;4417325;32;19989;-69
2022/02/22 03:03:40;;;;;;;;;;;;;;;18.31;40.11;100627.00;4413721;32;19996;-69
2022/02/22 03:06:07;;;;;;;;;;;;;;;18.18;40.41;100600.88;4414764;32;19953;-69
2022/02/22 03:08:32;;;;;;;;;;;;;;;17.85;40.51;100610.44;4414394;32;20547;-69
2022/02/22 03:11:01;;;;;;;;;;;;;;;17.98;40.69;100595.12;4414249;32;20331;-69
2022/02/22 03:13:29;;;;;;;;;;;;;;;18.42;39.98;100593.78;4414745;32;20027;-69
2022/02/22 03:15:56;;;;;;;;;;;;;;;18.22;40.33;100588.00;4417232;32;20102;-69
2022/02/22 03:18:22;;;;;;;;;;;;;;;18.12;40.43;100600.00;4420362;32;19961;-69
2022/02/22 03:21:07;;;;;;;;;;;;;;;18.15;40.40;100593.31;4417768;32;20023;-69
2022/02/22 03:23:59;;;;;;;;;;;;;;;18.21;40.02;100574.25;4414506;32;19950;-69
2022/02/22 03:26:50;;;;;;;;;;;;;;;17.73;40.80;100559.50;4415361;32;19996;-69
2022/02/22 03:29:40;;;;;;;;;;;;;;;17.48;41.20;100565.78;4420455;32;19961;-69
2022/02/22 03:32:26;;;;;;;;;;;;;;;17.19;41.81;100558.03;4409154;32;19954;-69
2022/02/22 03:35:15;;;;;;;;;;;;;;;17.53;41.17;100546.00;4418168;32;20128;-69
2022/02/22 03:38:01;;;;;;;;;;;;;;;17.41;41.11;100540.56;4417481;32;20001;-69
2022/02/22 03:41:00;;;;;;;;;;;;;;;17.09;41.99;100552.91;4411229;32;19991;-69
2022/02/22 03:43:50;;;;;;;;;;;;;;;17.39;41.51;100526.03;4418764;32;20312;-69
2022/02/22 03:46:38;;;;;;;;;;;;;;;17.54;40.93;100524.00;4413476;32;20043;-69
2022/02/22 03:49:08;;;;;;;;;;;;;;;17.53;41.04;100530.97;4417563;32;20002;-69
2022/02/22 03:52:08;;;;;;;;;;;;;;;17.73;40.72;100534.69;4415780;32;19997;-69
2022/02/22 03:54:52;;;;;;;;;;;;;;;17.63;40.83;100526.75;4418154;32;19969;-69
2022/02/22 03:57:44;;;;;;;;;;;;;;;18.05;40.18;100526.38;4390854;32;20032;-69
2022/02/22 04:00:31;;;;;;;;;;;;;;;18.33;39.60;100530.41;4357470;32;19993;-69
2022/02/22 04:03:09;;;;;;;;;;;;;;;18.15;40.32;100527.81;4358256;32;20014;-69
2022/02/22 04:06:04;;;;;;;;;;;;;;;18.39;39.61;100512.16;4343519;32;20050;-69
2022/02/22 04:08:32;;;;;;;;;;;;;;;18.71;39.21;100513.84;4342892;32;20521;-69
2022/02/22 04:11:09;;;;;;;;;;;;;;;18.68;39.19;100497.72;4343923;32;19998;-69
2022/02/22 04:13:53;;;;;;;;;;;;;;;18.87;38.81;100498.22;4345759;32;20084;-69
2022/02/22 04:16:45;;;;;;;;;;;;;;;18.72;39.24;100484.03;4299897;33;20002;-70
2022/02/22 04:19:39;;;;;;;;;;;;;;;18.74;39.42;100478.63;4316949;33;20335;-70
2022/02/22 04:22:27;;;;;;;;;;;;;;;18.84;38.98;100451.53;4321669;33;20008;-70
2022/02/22 04:25:13;;;;;;;;;;;;;;;18.91;39.07;100456.81;4332039;33;19987;-70
2022/02/22 04:28:03;;;;;;;;;;;;;;;19.22;38.69;100456.06;4330693;33;19975;-70
2022/02/22 04:30:33;;;;;;;;;;;;;;;18.79;39.49;100448.62;4369215;32;20035;-70
2022/02/22 04:33:37;;;;;;;;;;;;;;;18.87;39.41;100432.66;4365602;32;20148;-70
2022/02/22 04:36:35;;;;;;;;;;;;;;;18.90;39.58;100423.84;4374417;32;19974;-70
2022/02/22 04:39:02;;;;;;;;;;;;;;;18.51;40.52;100416.19;4374646;32;20029;-70
2022/02/22 04:41:48;;;;;;;;;;;;;;;19.23;38.98;100406.25;4375631;32;20017;-70
2022/02/22 04:44:34;;;;;;;;;;;;;;;19.53;38.28;100405.50;4376151;32;20068;-70
2022/02/22 04:47:21;;;;;;;;;;;;;;;19.21;39.49;100395.34;4363290;32;19950;-70
2022/02/22 04:50:11;;;;;;;;;;;;;;;19.26;39.38;100382.41;4337548;32;20003;-70
2022/02/22 04:53:00;;;;;;;;;;;;;;;18.85;40.31;100366.78;4362329;32;19973;-70
2022/02/22 04:55:44;;;;;;;;;;;;;;;18.50;41.21;100357.62;4348051;32;20430;-70
2022/02/22 04:58:32;;;;;;;;;;;;;;;18.36;41.47;100349.94;4361390;32;19996;-70
2022/02/22 05:01:02;;;;;;;;;;;;;;;18.47;41.44;100350.09;4358002;32;20005;-70
2022/02/22 05:03:28;;;;;;;;;;;;;;;18.52;41.33;100340.78;4351205;32;20343;-70
2022/02/22 05:05:58;;;;;;;;;;;;;;;18.91;40.74;100344.81;4370232;32;20135;-70
2022/02/22 05:08:44;;;;;;;;;;;;;;;18.63;41.45;100338.06;4384465;32;19982;-70
2022/02/22 05:11:27;;;;;;;;;;;;;;;18.45;41.99;100324.94;4384699;32;20058;-70
2022/02/22 05:14:14;;;;;;;;;;;;;;;18.58;41.71;100318.84;4386677;32;20031;-70
2022/02/22 05:16:49;;;;;;;;;;;;;;;19.14;40.86;100323.72;4386241;32;20045;-70
2022/02/22 05:19:17;;;;;;;;;;;;;;;19.30;40.53;100318.16;4386357;32;20030;-70
2022/02/22 05:21:49;;;;;;;;;;;;;;;18.91;41.55;100313.44;4379087;32;19968;-70
2022/02/22 05:24:18;;;;;;;;;;;;;;;19.71;40.39;100310.09;4377172;32;20034;-70
2022/02/22 05:26:43;;;;;;;;;;;;;;;19.01;41.53;100307.03;4384668;32;20029;-69
2022/02/22 05:29:09;;;;;;;;;;;;;;;19.18;41.16;100292.91;4386378;32;20551;-69
2022/02/22 05:31:34;;;;;;;;;;;;;;;19.11;41.67;100281.94;4383161;32;19969;-70
2022/02/22 05:34:00;;;;;;;;;;;;;;;19.18;nan;100276.56;4384599;32;19960;-69
2022/02/22 05:36:28;;;;;;;;;;;;;;;19.01;41.59;100266.31;4387016;32;19984;-69
2022/02/22 05:38:53;;;;;;;;;;;;;;;18.75;42.05;100260.69;4384223;32;19997;-69
2022/02/22 05:41:19;;;;;;;;;;;;;;;18.87;42.09;100247.31;4384414;32;20046;-69
2022/02/22 05:44:04;;;;;;;;;;;;;;;19.05;41.64;100238.38;4387386;32;19954;-69
2022/02/22 05:46:30;;;;;;;;;;;;;;;19.11;41.61;100227.75;4386618;32;19993;-70
2022/02/22 05:49:14;;;;;;;;;;;;;;;19.09;41.93;100224.66;4384848;32;19960;-70
2022/02/22 05:51:41;;;;;;;;;;;;;;;18.81;42.57;100201.66;4413359;32;20000;-70
2022/02/22 05:54:08;;;;;;;;;;;;;;;18.97;42.02;100198.12;4418502;32;19991;-70
2022/02/22 05:56:53;;;;;;;;;;;;;;;18.75;42.15;100191.50;4388759;32;19982;-70
2022/02/22 05:59:41;;;;;;;;;;;;;;;18.54;42.31;100164.41;4389995;32;20367;-70
2022/02/22 06:02:14;;;;;;;;;;;;;;;18.55;42.32;100141.09;4390370;32;20350;-70
2022/02/22 06:04:39;;;;;;;;;;;;;;;18.56;42.21;100141.91;4388572;32;20014;-70
2022/02/22 06:07:06;;;;;;;;;;;;;;;18.84;41.79;100137.16;4388463;32;20017;-70
2022/02/22 06:09:31;;;;;;;;;;;;;;;19.22;41.10;100130.84;4390713;32;20341;-70
2022/02/22 06:11:59;;;;;;;;;;;;;;;18.94;41.50;100109.97;4390015;32;20296;-70
2022/02/22 06:14:24;;;;;;;;;;;;;;;19.09;41.20;100110.56;4391636;32;20028;-70
2022/02/22 06:17:10;;;;;;;;;;;;;;;19.04;41.63;100106.41;4391210;32;20013;-70
2022/02/22 06:19:37;;;;;;;;;;;;;;;18.85;41.75;100087.38;4389597;32;20030;-70
2022/02/22 06:22:02;;;;;;;;;;;;;;;18.38;42.74;100076.75;4390774;32;20062;-70
2022/02/22 06:24:31;;;;;;;;;;;;;;;19.03;41.28;100055.56;4390213;32;20366;-70
2022/02/22 06:27:17;;;;;;;;;;;;;;;19.10;41.70;100057.94;4395906;32;20005;-70
2022/02/22 06:29:43;;;;;;;;;;;;;;;19.19;41.34;100058.47;4416299;32;20020;-70
2022/02/22 06:32:18;;;;;;;;;;;;;;;18.96;42.34;100047.53;4416572;32;20061;-70
2022/02/22 06:34:48;;;;;;;;;;;;;;;19.37;41.92;100060.91;4414032;32;19962;-70
2022/02/22 06:37:15;;;;;;;;;;;;;;;19.73;41.42;100067.72;4415598;32;19958;-70
2022/02/22 06:39:40;;;;;;;;;;;;;;;20.09;40.72;100063.78;4416257;32;20456;-70
2022/02/22 06:42:26;;;;;;;;;;;;;;;20.30;40.43;100082.25;4419659;32;19985;-70
2022/02/22 06:44:51;;;;;;;;;;;;;;;20.57;39.81;100104.31;4415217;32;20009;-72
2022/02/22 06:47:36;;;;;;;;;;;;;;;20.98;38.84;100104.47;4416587;32;19985;-70
2022/02/22 06:50:22;;;;;;;;;;;;;;;19.94;40.72;100093.94;4417125;32;21011;-70
2022/02/22 06:53:11;;;;;;;;;;;;;;;20.49;39.64;100096.78;4414405;32;19964;-70
2022/02/22 06:55:50;;;;;;;;;;;;;;;20.61;39.13;100093.38;4416892;32;19990;-70
2022/02/22 06:58:35;;;;;;;;;;;;;;;20.77;38.38;100103.22;4420898;32;19972;-70
2022/02/22 07:01:26;;;;;;;;;;;;;;;20.85;38.28;100082.13;4417298;32;19982;-70
2022/02/22 07:03:54;;;;;;;;;;;;;;;21.02;38.08;100084.97;4418590;32;19984;-70
2022/02/22 07:06:27;;;;;;;;;;;;;;;21.39;37.80;100068.13;4416401;32;19973;-70
2022/02/22 07:09:19;;;;;;;;;;;;;;;20.89;38.36;100058.97;4417146;32;19976;-70
2022/02/22 07:11:45;;;;;;;;;;;;;;;21.05;38.13;100046.72;4419014;32;19997;-70
2022/02/22 07:14:11;;;;;;;;;;;;;;;21.18;37.59;100038.31;4416551;32;19962;-70
2022/02/22 07:16:36;;;;;;;;;;;;;;;20.68;38.76;100023.44;4420845;32;20221;-70
2022/02/22 07:19:03;;;;;;;;;;;;;;;20.54;38.95;100011.00;4419306;32;19962;-70
2022/02/22 07:21:30;;;;;;;;;;;;;;;20.39;39.31;100001.97;4417463;32;20003;-70
2022/02/22 07:24:12;;;;;;;;;;;;;;;20.04;39.74;99998.91;4420551;32;19981;-70
2022/02/22 07:26:50;;;;;;;;;;;;;;;20.27;39.64;99985.34;4417335;32;19965;-70
2022/02/22 07:29:28;;;;;;;;;;;;;;;20.60;38.92;99983.19;4416677;32;20424;-70
2022/02/22 07:31:54;;;;;;;;;;;;;;;20.46;39.27;99980.66;4413933;32;20027;-71
2022/02/22 07:34:19;;;;;;;;;;;;;;;20.14;39.77;99974.50;4400939;32;20004;-70
2022/02/22 07:36:45;;;;;;;;;;;;;;;20.03;39.95;99962.28;4412033;32;19966;-70
2022/02/22 07:39:11;;;;;;;;;;;;;;;19.86;40.29;99976.59;4401981;32;20266;-70
2022/02/22 07:41:37;;;;;;;;;;;;;;;19.94;40.24;99976.84;4400321;32;20310;-70
2022/02/22 07:44:04;;;;;;;;;;;;;;;20.00;40.12;99978.37;4415491;32;20435;-70
2022/02/22 07:46:29;;;;;;;;;;;;;;;20.20;39.49;99960.97;4411961;32;19990;-70
2022/02/22 07:48:55;;;;;;;;;;;;;;;19.93;40.21;99963.84;4411065;32;19973;-70
2022/02/22 07:51:21;;;;;;;;;;;;;;;20.40;39.25;99957.78;4412598;32;20017;-70
2022/02/22 07:53:48;;;;;;;;;;;;;;;19.98;39.89;99941.00;4412015;32;20004;-71
2022/02/22 07:56:14;;;;;;;;;;;;;;;19.79;40.25;99931.44;4404032;32;20405;-71
2022/02/22 07:58:42;;;;;;;;;;;;;;;19.61;40.62;99915.59;4411545;32;20424;-71
2022/02/22 08:01:09;;;;;;;;;;;;;;;19.52;40.41;99898.75;4413885;32;20268;-70
2022/02/22 08:03:35;;;;;;;;;;;;;;;19.29;40.96;99897.22;4412627;32;20636;-70
2022/02/22 08:06:11;;;;;;;;;;;;;;;19.70;40.26;99892.50;4408420;32;20038;-71
2022/02/22 08:08:42;;;;;;;;;;;;;;;19.69;40.13;99888.09;4406446;32;19993;-71
2022/02/22 08:11:16;;;;;;;;;;;;;;;19.78;39.98;99887.03;4409974;32;20012;-71
2022/02/22 08:13:43;;;;;;;;;;;;;;;19.25;40.95;99878.78;4408553;32;20440;-71
2022/02/22 08:16:29;;;;;;;;;;;;;;;19.90;39.74;99873.50;4402045;32;19988;-71
2022/02/22 08:18:56;;;;;;;;;;;;;;;19.93;39.42;99861.81;4405006;32;20457;-71
2022/02/22 08:21:25;;;;;;;;;;;;;;;19.72;39.90;99857.72;4402808;32;20064;-70
2022/02/22 08:23:51;;;;;;;;;;;;;;;19.68;40.05;99849.44;4403086;32;19977;-70
2022/02/22 08:26:21;;;;;;;;;;;;;;;20.07;39.33;99854.25;4403059;32;20000;-70
2022/02/22 08:28:50;;;;;;;;;;;;;;;19.77;39.82;99836.97;4405392;32;19993;-70
2022/02/22 08:31:16;;;;;;;;;;;;;;;20.04;39.40;99833.25;4404431;32;20472;-71
2022/02/22 08:33:44;;;;;;;;;;;;;;;20.83;38.10;99824.47;4400453;32;19985;-70
2022/02/22 08:36:11;;;;;;;;;;;;;;;20.81;38.05;99832.84;4402640;32;20001;-70
2022/02/22 08:38:41;;;;;;;;;;;;;;;20.47;38.60;99840.06;4403012;32;20012;-70
2022/02/22 08:41:07;;;;;;;;;;;;;;;20.87;38.02;99853.59;4404783;32;20011;-70
2022/02/22 08:43:33;;;;;;;;;;;;;;;20.55;38.52;99835.34;4405889;32;20081;-70
2022/02/22 08:46:01;;;;;;;;;;;;;;;21.23;37.37;99835.09;4403226;32;20099;-71
2022/02/22 08:48:27;;;;;;;;;;;;;;;21.39;37.08;99811.28;4394865;32;19997;-71
2022/02/22 08:51:08;;;;;;;;;;;;;;;21.77;36.36;99820.00;4403355;32;20658;-71
2022/02/22 08:53:35;;;;;;;;;;;;;;;21.18;37.59;99800.81;4402179;32;20639;-71
2022/02/22 08:56:02;;;;;;;;;;;;;;;21.87;36.61;99810.53;4400859;32;20347;-72
2022/02/22 08:58:31;;;;;;;;;;;;;;;21.56;37.15;99806.16;4408483;32;20142;-71
2022/02/22 09:01:09;;;;;;;;;;;;;;;20.98;38.28;99824.91;4406394;32;20170;-71
2022/02/22 09:03:35;;;;;;;;;;;;;;;21.48;38.01;99851.00;4404412;32;20005;-71
2022/02/22 09:06:01;;;;;;;;;;;;;;;21.58;39.08;99843.63;4402231;32;19981;-70
2022/02/22 09:08:48;;;;;;;;;;;;;;;21.29;40.39;99832.19;4404032;32;19992;-71
2022/02/22 09:11:21;;;;;;;;;;;;;;;20.82;41.69;99857.25;4401983;32;20074;-70
2022/02/22 09:13:52;;;;;;;;;;;;;;;21.03;42.62;99861.28;4404864;32;20368;-70
2022/02/22 09:16:40;;;;;;;;;;;;;;;21.28;41.92;99925.09;4405459;32;20579;-73
2022/02/22 09:19:41;;;;;;;;;;;;;;;20.29;43.56;99886.41;4406779;32;20642;-75
2022/02/22 09:22:31;;;;;;;;;;;;;;;20.67;43.78;99871.13;4361426;32;20079;-72
2022/02/22 09:25:14;;;;;;;;;;;;;;;20.47;43.70;99868.66;4363612;32;20130;-72
2022/02/22 09:28:00;;;;;;;;;;;;;;;20.51;44.52;99889.16;4364415;32;20622;-71
2022/02/22 09:30:45;;;;;;;;;;;;;;;19.75;45.62;99883.16;4360226;32;20372;-71
2022/02/22 09:33:34;;;;;;;;;;;;;;;19.32;47.82;99870.50;4360112;32;20616;-70
2022/02/22 09:36:18;;;;;;;;;;;;;;;20.00;46.44;99881.25;4363053;32;20259;-69
2022/02/22 09:39:05;;;;;;;;;;;;;;;19.85;46.74;99863.66;4320282;33;20768;-69
2022/02/22 09:41:51;;;;;;;;;;;;;;;19.49;47.41;99865.53;4316949;32;20519;-69
2022/02/22 09:44:38;;;;;;;;;;;;;;;19.55;47.06;99876.97;4314535;32;20360;-69
2022/02/22 09:47:33;;;;;;;;;;;;;;;19.54;47.55;99859.06;4319216;32;20474;-69
2022/02/22 09:50:19;;;;;;;;;;;;;;;19.89;47.08;99847.06;4318683;33;19963;-71
2022/02/22 09:53:08;;;;;;;;;;;;;;;20.20;47.02;99849.56;4320659;32;19994;-71
2022/02/22 09:55:42;;;;;;;;;;;;;;;20.29;46.42;99854.19;4317483;32;20010;-72
2022/02/22 09:58:10;;;;;;;;;;;;;;;20.81;45.69;99847.13;4320877;32;20037;-71
2022/02/22 10:00:58;;;;;;;;;;;;;;;21.34;44.72;99857.13;4319016;33;20052;-71
2022/02/22 10:03:55;;;;;;;;;;;;;;;20.90;45.09;99883.97;4319755;32;20189;-70
2022/02/22 10:06:42;;;;;;;;;;;;;;;20.92;45.14;99880.56;4320944;32;19963;-71
2022/02/22 10:09:29;;;;;;;;;;;;;;;20.28;45.35;99881.97;4328909;32;19968;-71
2022/02/22 10:12:14;;;;;;;;;;;;;;;20.51;45.11;99900.59;4349227;32;21176;-71
2022/02/22 10:14:46;;;;;;;;;;;;;;;20.76;43.87;99930.84;4334033;32;20151;-70
2022/02/22 10:17:16;;;;;;;;;;;;;;;19.83;44.14;99929.84;4349519;32;20397;-70
2022/02/22 10:19:43;;;;;;;;;;;;;;;19.59;43.94;99965.97;4356103;32;20516;-71
2022/02/22 10:22:30;;;;;;;;;;;;;;;19.37;43.26;99945.97;4365696;32;20625;-72
2022/02/22 10:25:11;;;;;;;;;;;;;;;20.16;42.52;99957.63;4375756;32;20024;-71
2022/02/22 10:27:39;;;;;;;;;;;;;;;20.44;41.30;99946.88;4376116;32;20418;-71
2022/02/22 10:30:06;;;;;;;;;;;;;;;21.06;40.19;99965.31;4378252;32;19973;-71
2022/02/22 10:32:31;;;;;;;;;;;;;;;20.78;39.71;99953.22;4378107;32;20029;-72
2022/02/22 10:35:02;;;;;;;;;;;;;;;22.07;37.96;100001.22;4373639;32;19998;-73
2022/02/22 10:37:30;;;;;;;;;;;;;;;21.25;38.79;99975.56;4377386;32;19993;-72
2022/02/22 10:40:23;;;;;;;;;;;;;;;21.49;38.18;99969.94;4375869;32;20554;-72
2022/02/22 10:42:49;;;;;;;;;;;;;;;21.07;38.10;99972.56;4378265;32;20009;-72
2022/02/22 10:45:16;;;;;;;;;;;;;;;20.90;38.34;100021.25;4377485;32;20003;-72
2022/02/22 10:47:42;;;;;;;;;;;;;;;21.40;37.61;99955.97;4376084;32;20025;-71
2022/02/22 10:50:08;;;;;;;;;;;;;;;21.28;37.20;99965.94;4392970;32;19993;-71
2022/02/22 10:52:33;;;;;;;;;;;;;;;21.31;36.65;99979.19;4403690;32;20037;-70
2022/02/22 10:55:00;;;;;;;;;;;;;;;21.48;36.48;99990.50;4402836;32;20017;-70
2022/02/22 10:57:26;;;;;;;;;;;;;;;21.75;36.15;100012.44;4404062;32;20563;-70
2022/02/22 10:59:53;;;;;;;;;;;;;;;21.95;35.57;99991.97;4409597;32;19958;-71
2022/02/22 11:02:39;;;;;;;;;;;;;;;21.53;35.08;100013.37;4406428;32;20008;-71
2022/02/22 11:05:06;;;;;;;;;;;;;;;22.52;34.12;100002.34;4403965;32;19950;-71
2022/02/22 11:07:33;;;;;;;;;;;;;;;22.71;33.12;100032.63;4404009;32;20035;-69
2022/02/22 11:10:04;;;;;;;;;;;;;;;22.77;32.77;100039.03;4404766;32;20008;-71
2022/02/22 11:12:52;;;;;;;;;;;;;;;21.99;34.33;100066.94;4405089;32;20064;-71
2022/02/22 11:15:19;;;;;;;;;;;;;;;20.48;36.64;100078.06;4408933;32;20001;-72
2022/02/22 11:23:05;;;;;;;;;;;;;;;21.46;35.04;100128.47;3941381;32;15724174;-72
2022/02/22 11:25:31;;;;;;;;;;;;;;;21.46;35.04;100128.47;4412576;32;20011;-71
2022/02/22 11:28:04;;;;;;;;;;;;;;;20.86;35.83;100135.16;4412827;32;20031;-73
2022/02/22 11:30:30;;;;;;;;;;;;;;;20.13;36.78;100150.06;4416878;32;20001;-72
2022/02/22 11:32:58;;;;;;;;;;;;;;;21.47;35.51;100180.75;4416477;32;20100;-72
2022/02/22 11:35:25;;;;;;;;;;;;;;;21.83;34.58;100184.50;4417208;32;20039;-72
2022/02/22 11:38:02;;;;;;;;;;;;;;;22.45;34.12;100201.53;4419028;32;19997;-73
2022/02/22 11:40:30;;;;;;;;;;;;;;;23.05;32.48;100217.44;4412464;32;20058;-71
2022/02/22 11:43:15;;;;;;;;;;;;;;;23.50;31.56;100237.84;4413426;32;20311;-70
2022/02/22 11:45:43;;;;;;;;;;;;;;;22.95;32.63;100256.41;4413708;32;19992;-70
2022/02/22 11:50:53;;;;;;;;;;;;;;;21.99;32.54;100293.28;3941603;32;15738473;-71
2022/02/22 11:53:22;;;;;;;;;;;;;;;21.99;32.54;100293.28;4414153;32;20012;-70
2022/02/22 11:55:49;;;;;;;;;;;;;;;22.06;32.82;100284.13;4413598;32;19993;-70
2022/02/22 11:58:24;;;;;;;;;;;;;;;21.41;33.27;100292.44;4414631;32;20000;-70
2022/02/22 12:00:51;;;;;;;;;;;;;;;21.13;33.53;100297.44;4413819;32;19997;-70
2022/02/22 12:03:21;;;;;;;;;;;;;;;21.52;33.18;100315.31;4415413;32;20048;-70
2022/02/22 12:05:57;;;;;;;;;;;;;;;20.59;34.56;100292.47;4415030;32;19969;-70
2022/02/22 12:08:24;;;;;;;;;;;;;;;21.28;33.79;100305.72;4416215;32;19958;-70
2022/02/22 12:10:52;;;;;;;;;;;;;;;21.28;33.46;100317.97;4415181;32;20359;-70
2022/02/22 12:13:21;;;;;;;;;;;;;;;21.72;32.53;100324.87;4398833;32;19953;-70
2022/02/22 12:15:56;;;;;;;;;;;;;;;21.45;32.93;100315.84;4413788;32;20020;-70
2022/02/22 12:18:25;;;;;;;;;;;;;;;21.42;32.16;100298.94;4415424;32;20446;-69
2022/02/22 12:20:51;;;;;;;;;;;;;;;19.97;33.98;100296.44;4410952;32;20012;-72
2022/02/22 12:23:18;;;;;;;;;;;;;;;20.02;34.41;100312.03;4414056;32;20012;-70
2022/02/22 12:25:44;;;;;;;;;;;;;;;20.36;33.69;100308.00;4413698;32;19976;-70
2022/02/22 12:28:09;;;;;;;;;;;;;;;20.75;33.44;100309.62;4413610;32;20022;-70
2022/02/22 12:30:36;;;;;;;;;;;;;;;21.15;32.83;100308.34;4413435;32;20005;-70
2022/02/22 12:33:31;;;;;;;;;;;;;;;21.09;33.39;100319.81;4414192;32;20032;-70
2022/02/22 12:36:19;;;;;;;;;;;;;;;20.25;34.09;100305.91;4413481;32;19989;-70
2022/02/22 12:38:48;;;;;;;;;;;;;;;20.85;33.32;100304.44;4413680;32;20479;-70
2022/02/22 12:41:35;;;;;;;;;;;;;;;20.41;34.43;100316.62;4415517;32;19993;-72
2022/02/22 12:44:01;;;;;;;;;;;;;;;19.62;34.41;100318.87;4412339;32;20059;-72
2022/02/22 12:46:29;;;;;;;;;;;;;;;20.26;34.24;100315.25;4416639;32;19953;-71
2022/02/22 12:48:55;;;;;;;;;;;;;;;19.33;35.69;100333.50;4412423;32;20027;-71
2022/02/22 12:51:23;;;;;;;;;;;;;;;20.53;34.47;100321.06;4416211;32;20246;-73
2022/02/22 12:54:05;;;;;;;;;;;;;;;20.45;34.35;100331.44;4399937;32;20305;-72
2022/02/22 12:56:51;;;;;;;;;;;;;;;20.82;33.65;100325.50;4416380;32;19960;-73
2022/02/22 13:01:59;;;;;;;;;;;;;;;20.05;34.29;100337.50;3941658;32;15724221;-70
2022/02/22 13:04:27;;;;;;;;;;;;;;;20.05;34.29;100337.50;4418240;32;20660;-71
2022/02/22 13:06:55;;;;;;;;;;;;;;;20.81;33.44;100336.16;4416789;32;20012;-70
2022/02/22 13:09:21;;;;;;;;;;;;;;;21.04;32.87;100332.03;4421160;32;19997;-70
2022/02/22 13:12:13;;;;;;;;;;;;;;;21.10;33.18;100334.88;4417169;32;20439;-71
2022/02/22 13:15:02;;;;;;;;;;;;;;;21.29;32.66;100339.56;4420087;32;20001;-71
2022/02/22 13:17:40;;;;;;;;;;;;;;;21.27;32.16;100347.09;4420646;32;20589;-72
2022/02/22 13:20:10;;;;;;;;;;;;;;;20.88;32.66;100337.72;4420065;32;20325;-72
2022/02/22 13:22:44;;;;;;;;;;;;;;;21.34;31.99;100338.78;4421572;32;20001;-72